sensor_id;sensor_type;location;lat;lon;timestamp;P1;durP1;ratioP1;P2;durP2;ratioP2
16820;SDS011;8527;49.740;6.604;2023-03-23T00:02:19;3.72;;;2.03;;
16820;SDS011;8527;49.740;6.604;2023-03-23T00:12:25;5.20;;;1.92;;
16820;SDS011;8527;49.740;6.604;2023-03-23T00:17:33;3.55;;;1.55;;
16820;SDS011;8527;49.740;6.604;2023-03-23T00:22:32;4.80;;;1.77;;
16820;SDS011;8527;49.740;6.604;2023-03-23T00:27:34;3.38;;;1.50;;
16820;SDS011;8527;49.740;6.604;2023-03-23T00:32:35;1.25;;;1.13;;
16820;SDS011;8527;49.740;6.604;2023-03-23T00:37:39;1.40;;;1.30;;
16820;SDS011;8527;49.740;6.604;2023-03-23T00:42:38;1.38;;;1.20;;
16820;SDS011;8527;49.740;6.604;2023-03-23T00:47:41;3.67;;;1.50;;
16820;SDS011;8527;49.740;6.604;2023-03-23T00:52:41;1.88;;;1.35;;
16820;SDS011;8527;49.740;6.604;2023-03-23T00:57:45;2.80;;;1.27;;
16820;SDS011;8527;49.740;6.604;2023-03-23T01:02:48;1.88;;;1.20;;
16820;SDS011;8527;49.740;6.604;2023-03-23T01:07:50;1.67;;;1.08;;
16820;SDS011;8527;49.740;6.604;2023-03-23T01:12:48;1.75;;;1.52;;
16820;SDS011;8527;49.740;6.604;2023-03-23T01:17:49;2.90;;;1.40;;
16820;SDS011;8527;49.740;6.604;2023-03-23T01:22:50;2.50;;;1.60;;
16820;SDS011;8527;49.740;6.604;2023-03-23T01:27:58;2.00;;;1.48;;
16820;SDS011;8527;49.740;6.604;2023-03-23T01:32:59;2.45;;;1.10;;
16820;SDS011;8527;49.740;6.604;2023-03-23T01:37:58;2.15;;;1.50;;
16820;SDS011;8527;49.740;6.604;2023-03-23T01:42:57;4.63;;;1.63;;
16820;SDS011;8527;49.740;6.604;2023-03-23T01:47:57;3.92;;;1.83;;
16820;SDS011;8527;49.740;6.604;2023-03-23T01:53:04;3.53;;;1.35;;
16820;SDS011;8527;49.740;6.604;2023-03-23T01:58:05;4.38;;;2.72;;
16820;SDS011;8527;49.740;6.604;2023-03-23T02:03:06;4.00;;;1.80;;
16820;SDS011;8527;49.740;6.604;2023-03-23T02:08:08;3.70;;;1.83;;
16820;SDS011;8527;49.740;6.604;2023-03-23T02:13:09;1.80;;;1.70;;
16820;SDS011;8527;49.740;6.604;2023-03-23T02:18:12;5.53;;;1.88;;
16820;SDS011;8527;49.740;6.604;2023-03-23T02:34:17;6.00;;;2.00;;
16820;SDS011;8527;49.740;6.604;2023-03-23T02:39:21;3.90;;;1.95;;
16820;SDS011;8527;49.740;6.604;2023-03-23T02:44:27;5.38;;;1.90;;
16820;SDS011;8527;49.740;6.604;2023-03-23T02:49:32;1.85;;;1.75;;
16820;SDS011;8527;49.740;6.604;2023-03-23T02:54:37;2.88;;;2.30;;
16820;SDS011;8527;49.740;6.604;2023-03-23T02:59:38;3.17;;;2.05;;
16820;SDS011;8527;49.740;6.604;2023-03-23T03:04:40;3.72;;;2.10;;
16820;SDS011;8527;49.740;6.604;2023-03-23T03:09:45;3.20;;;2.20;;
16820;SDS011;8527;49.740;6.604;2023-03-23T03:14:48;2.20;;;2.00;;
16820;SDS011;8527;49.740;6.604;2023-03-23T03:19:54;6.13;;;2.30;;
16820;SDS011;8527;49.740;6.604;2023-03-23T03:25:05;4.53;;;2.20;;
16820;SDS011;8527;49.740;6.604;2023-03-23T03:30:08;2.47;;;2.25;;
16820;SDS011;8527;49.740;6.604;2023-03-23T03:35:12;4.15;;;2.38;;
16820;SDS011;8527;49.740;6.604;2023-03-23T03:40:12;3.80;;;2.33;;
16820;SDS011;8527;49.740;6.604;2023-03-23T03:45:13;4.68;;;3.13;;
16820;SDS011;8527;49.740;6.604;2023-03-23T03:50:16;2.97;;;2.13;;
16820;SDS011;8527;49.740;6.604;2023-03-23T03:55:14;2.95;;;2.22;;
16820;SDS011;8527;49.740;6.604;2023-03-23T04:00:13;3.85;;;2.38;;
16820;SDS011;8527;49.740;6.604;2023-03-23T04:05:19;2.40;;;2.20;;
16820;SDS011;8527;49.740;6.604;2023-03-23T04:10:19;2.53;;;2.33;;
16820;SDS011;8527;49.740;6.604;2023-03-23T04:15:24;5.00;;;2.30;;
16820;SDS011;8527;49.740;6.604;2023-03-23T04:20:26;2.75;;;2.33;;
16820;SDS011;8527;49.740;6.604;2023-03-23T04:25:24;4.07;;;2.53;;
16820;SDS011;8527;49.740;6.604;2023-03-23T04:30:23;4.47;;;2.50;;
16820;SDS011;8527;49.740;6.604;2023-03-23T04:35:28;3.83;;;2.60;;
16820;SDS011;8527;49.740;6.604;2023-03-23T04:40:43;6.70;;;3.08;;
16820;SDS011;8527;49.740;6.604;2023-03-23T04:45:41;2.90;;;2.10;;
16820;SDS011;8527;49.740;6.604;2023-03-23T04:50:48;3.50;;;2.53;;
16820;SDS011;8527;49.740;6.604;2023-03-23T04:55:52;4.63;;;2.67;;
16820;SDS011;8527;49.740;6.604;2023-03-23T05:00:53;4.05;;;2.60;;
16820;SDS011;8527;49.740;6.604;2023-03-23T05:05:54;4.15;;;2.40;;
16820;SDS011;8527;49.740;6.604;2023-03-23T05:10:59;4.43;;;2.43;;
16820;SDS011;8527;49.740;6.604;2023-03-23T05:16:02;2.65;;;2.42;;
16820;SDS011;8527;49.740;6.604;2023-03-23T05:21:13;4.05;;;2.65;;
16820;SDS011;8527;49.740;6.604;2023-03-23T05:26:14;6.60;;;2.55;;
16820;SDS011;8527;49.740;6.604;2023-03-23T05:31:20;4.13;;;2.15;;
16820;SDS011;8527;49.740;6.604;2023-03-23T05:36:24;4.13;;;2.60;;
16820;SDS011;8527;49.740;6.604;2023-03-23T05:41:32;3.65;;;2.38;;
16820;SDS011;8527;49.740;6.604;2023-03-23T05:46:30;3.15;;;2.58;;
16820;SDS011;8527;49.740;6.604;2023-03-23T05:51:38;5.57;;;3.03;;
16820;SDS011;8527;49.740;6.604;2023-03-23T05:56:36;4.88;;;2.70;;
16820;SDS011;8527;49.740;6.604;2023-03-23T06:01:35;3.92;;;2.40;;
16820;SDS011;8527;49.740;6.604;2023-03-23T06:06:39;4.13;;;2.33;;
16820;SDS011;8527;49.740;6.604;2023-03-23T06:11:38;3.72;;;2.60;;
16820;SDS011;8527;49.740;6.604;2023-03-23T06:16:37;3.63;;;2.70;;
16820;SDS011;8527;49.740;6.604;2023-03-23T06:21:35;3.97;;;2.58;;
16820;SDS011;8527;49.740;6.604;2023-03-23T06:26:39;4.20;;;2.70;;
16820;SDS011;8527;49.740;6.604;2023-03-23T06:31:45;5.55;;;2.85;;
16820;SDS011;8527;49.740;6.604;2023-03-23T06:36:45;4.60;;;2.60;;
16820;SDS011;8527;49.740;6.604;2023-03-23T06:41:46;5.10;;;3.00;;
16820;SDS011;8527;49.740;6.604;2023-03-23T06:46:45;3.95;;;2.70;;
16820;SDS011;8527;49.740;6.604;2023-03-23T06:51:43;3.35;;;2.58;;
16820;SDS011;8527;49.740;6.604;2023-03-23T06:56:42;2.83;;;2.33;;
16820;SDS011;8527;49.740;6.604;2023-03-23T07:01:43;6.00;;;2.63;;
16820;SDS011;8527;49.740;6.604;2023-03-23T07:06:43;2.95;;;2.58;;
16820;SDS011;8527;49.740;6.604;2023-03-23T07:11:45;4.25;;;2.45;;
16820;SDS011;8527;49.740;6.604;2023-03-23T07:16:52;3.95;;;2.80;;
16820;SDS011;8527;49.740;6.604;2023-03-23T07:21:51;3.60;;;2.42;;
16820;SDS011;8527;49.740;6.604;2023-03-23T07:26:49;3.63;;;2.50;;
16820;SDS011;8527;49.740;6.604;2023-03-23T07:31:59;3.63;;;2.67;;
16820;SDS011;8527;49.740;6.604;2023-03-23T07:37:01;2.80;;;2.50;;
16820;SDS011;8527;49.740;6.604;2023-03-23T07:42:02;4.70;;;1.98;;
16820;SDS011;8527;49.740;6.604;2023-03-23T07:47:07;3.20;;;2.00;;
16820;SDS011;8527;49.740;6.604;2023-03-23T07:52:11;3.05;;;2.28;;
16820;SDS011;8527;49.740;6.604;2023-03-23T07:57:12;3.85;;;2.63;;
16820;SDS011;8527;49.740;6.604;2023-03-23T08:02:13;2.72;;;1.88;;
16820;SDS011;8527;49.740;6.604;2023-03-23T08:07:12;3.38;;;1.65;;
16820;SDS011;8527;49.740;6.604;2023-03-23T08:12:11;2.30;;;2.10;;
16820;SDS011;8527;49.740;6.604;2023-03-23T08:17:09;2.50;;;2.00;;
16820;SDS011;8527;49.740;6.604;2023-03-23T08:22:13;3.22;;;1.90;;
16820;SDS011;8527;49.740;6.604;2023-03-23T08:27:12;4.40;;;2.45;;
16820;SDS011;8527;49.740;6.604;2023-03-23T08:32:13;5.03;;;1.80;;
16820;SDS011;8527;49.740;6.604;2023-03-23T08:37:15;3.28;;;1.90;;
16820;SDS011;8527;49.740;6.604;2023-03-23T08:42:13;2.53;;;1.63;;
16820;SDS011;8527;49.740;6.604;2023-03-23T08:47:13;3.05;;;1.95;;
16820;SDS011;8527;49.740;6.604;2023-03-23T08:52:15;2.67;;;1.67;;
16820;SDS011;8527;49.740;6.604;2023-03-23T08:57:13;3.42;;;1.70;;
16820;SDS011;8527;49.740;6.604;2023-03-23T09:02:13;4.90;;;1.98;;
16820;SDS011;8527;49.740;6.604;2023-03-23T09:07:15;2.25;;;1.48;;
16820;SDS011;8527;49.740;6.604;2023-03-23T09:12:13;1.60;;;1.50;;
16820;SDS011;8527;49.740;6.604;2023-03-23T09:17:13;4.45;;;1.63;;
16820;SDS011;8527;49.740;6.604;2023-03-23T09:22:15;2.40;;;1.60;;
16820;SDS011;8527;49.740;6.604;2023-03-23T09:27:14;2.63;;;1.70;;
16820;SDS011;8527;49.740;6.604;2023-03-23T09:32:14;2.05;;;1.83;;
16820;SDS011;8527;49.740;6.604;2023-03-23T09:37:17;3.67;;;1.50;;
16820;SDS011;8527;49.740;6.604;2023-03-23T09:42:18;2.75;;;1.67;;
16820;SDS011;8527;49.740;6.604;2023-03-23T09:47:34;1.70;;;1.27;;
16820;SDS011;8527;49.740;6.604;2023-03-23T09:52:43;1.80;;;1.20;;
16820;SDS011;8527;49.740;6.604;2023-03-23T09:57:51;2.75;;;1.58;;
16820;SDS011;8527;49.740;6.604;2023-03-23T10:02:59;2.28;;;1.60;;
16820;SDS011;8527;49.740;6.604;2023-03-23T10:08:08;1.73;;;1.23;;
16820;SDS011;8527;49.740;6.604;2023-03-23T10:13:13;1.48;;;1.35;;
16820;SDS011;8527;49.740;6.604;2023-03-23T10:18:19;2.00;;;1.40;;
16820;SDS011;8527;49.740;6.604;2023-03-23T10:28:44;1.55;;;1.30;;
16820;SDS011;8527;49.740;6.604;2023-03-23T10:33:48;1.58;;;1.15;;
16820;SDS011;8527;49.740;6.604;2023-03-23T10:38:53;1.02;;;1.00;;
16820;SDS011;8527;49.740;6.604;2023-03-23T10:43:56;2.50;;;1.00;;
16820;SDS011;8527;49.740;6.604;2023-03-23T10:48:54;2.92;;;1.50;;
16820;SDS011;8527;49.740;6.604;2023-03-23T10:53:59;1.33;;;1.20;;
16820;SDS011;8527;49.740;6.604;2023-03-23T10:58:59;2.78;;;1.20;;
16820;SDS011;8527;49.740;6.604;2023-03-23T11:04:15;2.03;;;1.30;;
16820;SDS011;8527;49.740;6.604;2023-03-23T11:09:33;3.60;;;1.13;;
16820;SDS011;8527;49.740;6.604;2023-03-23T11:14:34;5.00;;;1.25;;
16820;SDS011;8527;49.740;6.604;2023-03-23T11:19:37;1.38;;;1.23;;
16820;SDS011;8527;49.740;6.604;2023-03-23T11:24:40;3.30;;;1.20;;
16820;SDS011;8527;49.740;6.604;2023-03-23T11:29:44;2.25;;;1.27;;
16820;SDS011;8527;49.740;6.604;2023-03-23T11:34:48;3.17;;;1.30;;
16820;SDS011;8527;49.740;6.604;2023-03-23T11:39:56;1.98;;;1.30;;
16820;SDS011;8527;49.740;6.604;2023-03-23T11:45:13;3.10;;;1.60;;
16820;SDS011;8527;49.740;6.604;2023-03-23T11:50:17;6.22;;;2.38;;
16820;SDS011;8527;49.740;6.604;2023-03-23T11:55:22;4.75;;;1.35;;
16820;SDS011;8527;49.740;6.604;2023-03-23T12:00:23;3.67;;;1.52;;
16820;SDS011;8527;49.740;6.604;2023-03-23T12:05:30;2.47;;;1.38;;
16820;SDS011;8527;49.740;6.604;2023-03-23T12:10:39;2.30;;;0.82;;
16820;SDS011;8527;49.740;6.604;2023-03-23T12:20:50;2.40;;;1.50;;
16820;SDS011;8527;49.740;6.604;2023-03-23T12:26:06;4.50;;;1.40;;
16820;SDS011;8527;49.740;6.604;2023-03-23T12:31:23;3.08;;;1.50;;
16820;SDS011;8527;49.740;6.604;2023-03-23T12:36:29;4.10;;;1.95;;
16820;SDS011;8527;49.740;6.604;2023-03-23T12:41:43;4.35;;;1.80;;
16820;SDS011;8527;49.740;6.604;2023-03-23T12:47:06;3.95;;;1.67;;
16820;SDS011;8527;49.740;6.604;2023-03-23T12:52:18;3.55;;;1.70;;
16820;SDS011;8527;49.740;6.604;2023-03-23T12:57:34;3.65;;;2.03;;
16820;SDS011;8527;49.740;6.604;2023-03-23T13:02:40;4.07;;;1.80;;
16820;SDS011;8527;49.740;6.604;2023-03-23T13:07:42;4.53;;;2.38;;
16820;SDS011;8527;49.740;6.604;2023-03-23T13:12:57;4.20;;;1.85;;
16820;SDS011;8527;49.740;6.604;2023-03-23T13:17:58;3.30;;;1.80;;
16820;SDS011;8527;49.740;6.604;2023-03-23T13:23:04;3.58;;;2.10;;
16820;SDS011;8527;49.740;6.604;2023-03-23T13:28:16;4.65;;;2.22;;
16820;SDS011;8527;49.740;6.604;2023-03-23T13:33:15;1.73;;;1.55;;
16820;SDS011;8527;49.740;6.604;2023-03-23T13:38:17;3.75;;;1.75;;
16820;SDS011;8527;49.740;6.604;2023-03-23T13:43:30;5.10;;;1.80;;
16820;SDS011;8527;49.740;6.604;2023-03-23T13:48:39;2.85;;;1.60;;
16820;SDS011;8527;49.740;6.604;2023-03-23T13:53:43;4.35;;;1.70;;
16820;SDS011;8527;49.740;6.604;2023-03-23T13:58:49;2.30;;;1.35;;
16820;SDS011;8527;49.740;6.604;2023-03-23T14:03:53;2.90;;;1.70;;
16820;SDS011;8527;49.740;6.604;2023-03-23T14:08:54;6.60;;;2.15;;
16820;SDS011;8527;49.740;6.604;2023-03-23T14:14:06;2.65;;;1.58;;
16820;SDS011;8527;49.740;6.604;2023-03-23T14:19:15;4.43;;;1.60;;
16820;SDS011;8527;49.740;6.604;2023-03-23T14:24:16;2.67;;;1.65;;
16820;SDS011;8527;49.740;6.604;2023-03-23T14:29:20;4.15;;;1.60;;
16820;SDS011;8527;49.740;6.604;2023-03-23T14:34:21;3.63;;;1.88;;
16820;SDS011;8527;49.740;6.604;2023-03-23T14:39:23;5.95;;;2.10;;
16820;SDS011;8527;49.740;6.604;2023-03-23T14:44:27;3.35;;;1.40;;
16820;SDS011;8527;49.740;6.604;2023-03-23T14:49:37;9.00;;;2.35;;
16820;SDS011;8527;49.740;6.604;2023-03-23T14:54:37;3.40;;;2.13;;
16820;SDS011;8527;49.740;6.604;2023-03-23T14:59:42;6.18;;;2.42;;
16820;SDS011;8527;49.740;6.604;2023-03-23T15:04:42;4.63;;;1.95;;
16820;SDS011;8527;49.740;6.604;2023-03-23T15:09:43;4.60;;;1.98;;
16820;SDS011;8527;49.740;6.604;2023-03-23T15:14:47;6.05;;;1.75;;
16820;SDS011;8527;49.740;6.604;2023-03-23T15:19:47;2.90;;;1.60;;
16820;SDS011;8527;49.740;6.604;2023-03-23T15:24:47;4.85;;;1.83;;
16820;SDS011;8527;49.740;6.604;2023-03-23T15:29:51;9.55;;;2.05;;
16820;SDS011;8527;49.740;6.604;2023-03-23T15:34:55;7.97;;;2.20;;
16820;SDS011;8527;49.740;6.604;2023-03-23T15:40:03;6.47;;;2.00;;
16820;SDS011;8527;49.740;6.604;2023-03-23T15:45:26;2.80;;;2.00;;
16820;SDS011;8527;49.740;6.604;2023-03-23T15:50:33;3.28;;;1.88;;
16820;SDS011;8527;49.740;6.604;2023-03-23T15:55:35;5.63;;;2.00;;
16820;SDS011;8527;49.740;6.604;2023-03-23T16:00:38;6.00;;;1.75;;
16820;SDS011;8527;49.740;6.604;2023-03-23T16:05:41;6.00;;;2.35;;
16820;SDS011;8527;49.740;6.604;2023-03-23T16:10:40;3.13;;;1.77;;
16820;SDS011;8527;49.740;6.604;2023-03-23T16:15:41;3.42;;;1.88;;
16820;SDS011;8527;49.740;6.604;2023-03-23T16:20:43;3.95;;;1.50;;
16820;SDS011;8527;49.740;6.604;2023-03-23T16:25:44;5.60;;;1.80;;
16820;SDS011;8527;49.740;6.604;2023-03-23T16:30:45;7.75;;;2.40;;
16820;SDS011;8527;49.740;6.604;2023-03-23T16:35:44;2.70;;;1.70;;
16820;SDS011;8527;49.740;6.604;2023-03-23T16:40:43;4.07;;;1.90;;
16820;SDS011;8527;49.740;6.604;2023-03-23T16:45:53;6.30;;;1.98;;
16820;SDS011;8527;49.740;6.604;2023-03-23T16:50:56;5.05;;;2.08;;
16820;SDS011;8527;49.740;6.604;2023-03-23T16:55:57;3.35;;;1.95;;
16820;SDS011;8527;49.740;6.604;2023-03-23T17:01:00;3.33;;;1.73;;
16820;SDS011;8527;49.740;6.604;2023-03-23T17:06:00;5.03;;;2.17;;
16820;SDS011;8527;49.740;6.604;2023-03-23T17:10:59;3.65;;;2.05;;
16820;SDS011;8527;49.740;6.604;2023-03-23T17:16:00;5.32;;;1.80;;
16820;SDS011;8527;49.740;6.604;2023-03-23T17:20:59;5.22;;;1.60;;
16820;SDS011;8527;49.740;6.604;2023-03-23T17:25:57;3.65;;;1.67;;
16820;SDS011;8527;49.740;6.604;2023-03-23T17:30:58;7.70;;;2.08;;
16820;SDS011;8527;49.740;6.604;2023-03-23T17:36:05;4.18;;;1.92;;
16820;SDS011;8527;49.740;6.604;2023-03-23T17:41:04;4.93;;;2.22;;
16820;SDS011;8527;49.740;6.604;2023-03-23T17:46:08;4.15;;;2.17;;
16820;SDS011;8527;49.740;6.604;2023-03-23T17:51:07;5.97;;;3.50;;
16820;SDS011;8527;49.740;6.604;2023-03-23T17:56:06;8.07;;;4.93;;
16820;SDS011;8527;49.740;6.604;2023-03-23T18:01:10;6.07;;;3.20;;
16820;SDS011;8527;49.740;6.604;2023-03-23T18:06:11;8.85;;;4.15;;
16820;SDS011;8527;49.740;6.604;2023-03-23T18:11:09;8.23;;;3.30;;
16820;SDS011;8527;49.740;6.604;2023-03-23T18:16:14;9.75;;;4.55;;
16820;SDS011;8527;49.740;6.604;2023-03-23T18:21:12;9.50;;;3.45;;
16820;SDS011;8527;49.740;6.604;2023-03-23T18:26:13;5.95;;;3.17;;
16820;SDS011;8527;49.740;6.604;2023-03-23T18:31:18;7.88;;;3.50;;
16820;SDS011;8527;49.740;6.604;2023-03-23T18:36:18;8.23;;;2.63;;
16820;SDS011;8527;49.740;6.604;2023-03-23T18:41:18;7.70;;;2.65;;
16820;SDS011;8527;49.740;6.604;2023-03-23T18:46:19;7.35;;;3.15;;
16820;SDS011;8527;49.740;6.604;2023-03-23T18:51:23;6.90;;;3.08;;
16820;SDS011;8527;49.740;6.604;2023-03-23T18:56:25;8.68;;;3.10;;
16820;SDS011;8527;49.740;6.604;2023-03-23T19:01:28;5.90;;;2.95;;
16820;SDS011;8527;49.740;6.604;2023-03-23T19:06:30;7.35;;;2.72;;
16820;SDS011;8527;49.740;6.604;2023-03-23T19:11:31;12.13;;;4.55;;
16820;SDS011;8527;49.740;6.604;2023-03-23T19:16:37;5.38;;;2.78;;
16820;SDS011;8527;49.740;6.604;2023-03-23T19:21:36;4.68;;;2.42;;
16820;SDS011;8527;49.740;6.604;2023-03-23T19:26:38;7.53;;;3.13;;
16820;SDS011;8527;49.740;6.604;2023-03-23T19:31:41;4.43;;;2.33;;
16820;SDS011;8527;49.740;6.604;2023-03-23T19:36:42;4.90;;;2.90;;
16820;SDS011;8527;49.740;6.604;2023-03-23T19:41:41;3.85;;;2.33;;
16820;SDS011;8527;49.740;6.604;2023-03-23T19:46:43;3.30;;;2.60;;
16820;SDS011;8527;49.740;6.604;2023-03-23T19:51:42;5.80;;;2.50;;
16820;SDS011;8527;49.740;6.604;2023-03-23T19:56:40;4.90;;;2.17;;
16820;SDS011;8527;49.740;6.604;2023-03-23T20:01:44;4.97;;;2.42;;
16820;SDS011;8527;49.740;6.604;2023-03-23T20:06:43;4.00;;;2.60;;
16820;SDS011;8527;49.740;6.604;2023-03-23T20:11:41;2.85;;;2.40;;
16820;SDS011;8527;49.740;6.604;2023-03-23T20:16:45;5.53;;;2.60;;
16820;SDS011;8527;49.740;6.604;2023-03-23T20:21:44;4.95;;;3.47;;
16820;SDS011;8527;49.740;6.604;2023-03-23T20:26:45;6.68;;;2.83;;
16820;SDS011;8527;49.740;6.604;2023-03-23T20:31:46;12.00;;;4.72;;
16820;SDS011;8527;49.740;6.604;2023-03-23T20:36:48;5.60;;;2.90;;
16820;SDS011;8527;49.740;6.604;2023-03-23T20:41:52;6.30;;;3.10;;
16820;SDS011;8527;49.740;6.604;2023-03-23T20:46:55;5.82;;;3.30;;
16820;SDS011;8527;49.740;6.604;2023-03-23T20:51:57;7.72;;;4.38;;
16820;SDS011;8527;49.740;6.604;2023-03-23T20:56:58;4.40;;;3.00;;
16820;SDS011;8527;49.740;6.604;2023-03-23T21:01:59;5.57;;;3.40;;
16820;SDS011;8527;49.740;6.604;2023-03-23T21:07:02;5.97;;;3.10;;
16820;SDS011;8527;49.740;6.604;2023-03-23T21:12:07;4.78;;;3.20;;
16820;SDS011;8527;49.740;6.604;2023-03-23T21:17:13;5.07;;;2.80;;
16820;SDS011;8527;49.740;6.604;2023-03-23T21:22:11;4.50;;;3.03;;
16820;SDS011;8527;49.740;6.604;2023-03-23T21:27:15;3.42;;;2.97;;
16820;SDS011;8527;49.740;6.604;2023-03-23T21:32:19;4.07;;;3.00;;
16820;SDS011;8527;49.740;6.604;2023-03-23T21:37:22;4.32;;;3.03;;
16820;SDS011;8527;49.740;6.604;2023-03-23T21:42:23;5.38;;;3.67;;
16820;SDS011;8527;49.740;6.604;2023-03-23T21:47:26;10.68;;;5.60;;
16820;SDS011;8527;49.740;6.604;2023-03-23T21:52:26;14.13;;;8.35;;
16820;SDS011;8527;49.740;6.604;2023-03-23T21:57:25;6.00;;;4.28;;
16820;SDS011;8527;49.740;6.604;2023-03-23T22:02:23;4.82;;;3.50;;
16820;SDS011;8527;49.740;6.604;2023-03-23T22:07:25;3.78;;;3.00;;
16820;SDS011;8527;49.740;6.604;2023-03-23T22:12:24;3.70;;;3.20;;
16820;SDS011;8527;49.740;6.604;2023-03-23T22:17:22;5.57;;;3.60;;
16820;SDS011;8527;49.740;6.604;2023-03-23T22:22:21;4.65;;;3.15;;
16820;SDS011;8527;49.740;6.604;2023-03-23T22:27:22;5.88;;;3.20;;
16820;SDS011;8527;49.740;6.604;2023-03-23T22:32:23;5.05;;;3.00;;
16820;SDS011;8527;49.740;6.604;2023-03-23T22:37:27;4.43;;;2.90;;
16820;SDS011;8527;49.740;6.604;2023-03-23T22:42:28;9.82;;;3.90;;
16820;SDS011;8527;49.740;6.604;2023-03-23T22:47:27;6.22;;;3.55;;
16820;SDS011;8527;49.740;6.604;2023-03-23T22:52:28;4.70;;;2.80;;
16820;SDS011;8527;49.740;6.604;2023-03-23T22:57:30;6.03;;;3.20;;
16820;SDS011;8527;49.740;6.604;2023-03-23T23:02:29;6.75;;;2.92;;
16820;SDS011;8527;49.740;6.604;2023-03-23T23:07:30;5.50;;;2.75;;
16820;SDS011;8527;49.740;6.604;2023-03-23T23:12:31;4.35;;;3.05;;
16820;SDS011;8527;49.740;6.604;2023-03-23T23:17:30;6.38;;;3.20;;
16820;SDS011;8527;49.740;6.604;2023-03-23T23:22:28;4.47;;;2.75;;
16820;SDS011;8527;49.740;6.604;2023-03-23T23:27:31;5.28;;;2.50;;
16820;SDS011;8527;49.740;6.604;2023-03-23T23:32:33;4.75;;;2.95;;
16820;SDS011;8527;49.740;6.604;2023-03-23T23:37:32;5.30;;;2.92;;
16820;SDS011;8527;49.740;6.604;2023-03-23T23:42:36;4.60;;;2.78;;
16820;SDS011;8527;49.740;6.604;2023-03-23T23:47:35;5.15;;;2.78;;
16820;SDS011;8527;49.740;6.604;2023-03-23T23:52:37;3.42;;;2.70;;
16820;SDS011;8527;49.740;6.604;2023-03-23T23:57:42;8.23;;;2.63;;
